Time;durP1;ratioP1;P1;durP2;ratioP2;P2;SDS_P1;SDS_P2;PMS_P1;PMS_P2;Temp;Humidity;BMP_temperature;BMP_pressure;BME280_temperature;BME280_humidity;BME280_pressure;Samples;Min_cycle;Max_cycle;Signal;HPM_P1;HPM_P2
2022/03/21 00:00:51;;;;;;;;;;;7.00;99.90;;;;;;5093660;28;19974;-61
2022/03/21 00:03:18;;;;;;;;;;;7.00;99.90;;;;;;5102965;28;20007;-61
2022/03/21 00:05:45;;;;;;;;;;;7.10;99.90;;;;;;5113129;28;20392;-61
2022/03/21 00:08:11;;;;;;;;;;;7.00;99.90;;;;;;5113810;28;20278;-61
2022/03/21 00:10:38;;;;;;;;;;;7.10;99.90;;;;;;5112131;28;19973;-61
2022/03/21 00:13:04;;;;;;;;;;;7.00;99.90;;;;;;5092388;28;19986;-61
2022/03/21 00:15:32;;;;;;;;;;;7.00;99.90;;;;;;5092843;28;20386;-61
2022/03/21 00:17:58;;;;;;;;;;;7.00;99.90;;;;;;5091789;28;20425;-61
2022/03/21 00:20:26;;;;;;;;;;;7.10;99.90;;;;;;5091033;28;19920;-60
2022/03/21 00:22:52;;;;;;;;;;;6.90;99.90;;;;;;5082256;28;20371;-61
2022/03/21 00:25:18;;;;;;;;;;;6.90;99.90;;;;;;5082908;28;20271;-61
2022/03/21 00:27:45;;;;;;;;;;;6.90;99.90;;;;;;5081640;28;19924;-61
2022/03/21 00:30:14;;;;;;;;;;;6.90;99.90;;;;;;5070741;28;19947;-61
2022/03/21 00:32:41;;;;;;;;;;;6.80;99.90;;;;;;5087951;28;19921;-61
2022/03/21 00:35:08;;;;;;;;;;;6.90;99.90;;;;;;5071147;28;19925;-61
2022/03/21 00:37:35;;;;;;;;;;;6.90;99.90;;;;;;5076260;28;19924;-61
2022/03/21 00:40:00;;;;;;;;;;;6.80;99.90;;;;;;5091027;28;19930;-61
2022/03/21 00:42:26;;;;;;;;;;;6.80;99.90;;;;;;5086911;28;20011;-61
2022/03/21 00:44:54;;;;;;;;;;;6.80;99.90;;;;;;5091826;28;19924;-61
2022/03/21 00:47:20;;;;;;;;;;;6.80;99.90;;;;;;5091770;28;19935;-60
2022/03/21 00:49:46;;;;;;;;;;;6.80;99.90;;;;;;5093071;28;19924;-61
2022/03/21 00:52:12;;;;;;;;;;;6.80;99.90;;;;;;5093311;28;19976;-61
2022/03/21 00:54:38;;;;;;;;;;;6.70;99.90;;;;;;5090779;28;19928;-60
2022/03/21 00:57:03;;;;;;;;;;;6.70;99.90;;;;;;5093840;28;19930;-60
2022/03/21 00:59:29;;;;;;;;;;;6.70;99.90;;;;;;5093257;28;20364;-61
2022/03/21 01:01:55;;;;;;;;;;;6.70;99.90;;;;;;5092300;28;20012;-61
2022/03/21 01:04:20;;;;;;;;;;;6.70;99.90;;;;;;5106060;28;20018;-61
2022/03/21 01:06:46;;;;;;;;;;;6.70;99.90;;;;;;5093212;28;20540;-60
2022/03/21 01:09:14;;;;;;;;;;;6.70;99.90;;;;;;5090728;28;19928;-61
2022/03/21 01:11:40;;;;;;;;;;;6.70;99.90;;;;;;5091071;28;19928;-61
2022/03/21 01:14:05;;;;;;;;;;;6.70;99.90;;;;;;5092640;28;19924;-61
2022/03/21 01:16:31;;;;;;;;;;;6.70;99.90;;;;;;5091764;28;19925;-60
2022/03/21 01:18:57;;;;;;;;;;;6.70;99.90;;;;;;5091250;28;19925;-60
2022/03/21 01:21:22;;;;;;;;;;;6.70;99.90;;;;;;5093024;28;20007;-61
2022/03/21 01:23:48;;;;;;;;;;;6.70;99.90;;;;;;5091381;28;19931;-61
2022/03/21 01:26:13;;;;;;;;;;;6.70;99.90;;;;;;5091143;28;20015;-60
2022/03/21 01:28:39;;;;;;;;;;;6.70;99.90;;;;;;5092902;28;19928;-61
2022/03/21 01:31:05;;;;;;;;;;;6.70;99.90;;;;;;5091762;28;19977;-61
2022/03/21 01:33:31;;;;;;;;;;;6.70;99.90;;;;;;5092603;28;19928;-61
2022/03/21 01:35:57;;;;;;;;;;;6.60;99.90;;;;;;5092977;28;19924;-61
2022/03/21 01:38:22;;;;;;;;;;;6.60;99.90;;;;;;5091895;28;19930;-60
2022/03/21 01:40:48;;;;;;;;;;;6.60;99.90;;;;;;5088871;28;19970;-61
2022/03/21 01:43:14;;;;;;;;;;;6.60;99.90;;;;;;5093835;28;19963;-60
2022/03/21 01:45:39;;;;;;;;;;;6.60;99.90;;;;;;5095499;28;19932;-60
2022/03/21 01:48:05;;;;;;;;;;;6.70;99.90;;;;;;5095398;28;20026;-61
2022/03/21 01:50:31;;;;;;;;;;;6.60;99.90;;;;;;5095522;28;19931;-60
2022/03/21 01:55:43;;;;;;;;;;;6.60;99.90;;;;;;5096234;28;19924;-60
2022/03/21 01:55:43;;;;;;;;;;;6.60;99.90;;;;;;5095555;28;19963;-60
2022/03/21 01:58:11;;;;;;;;;;;6.60;99.90;;;;;;5094817;28;20009;-60
2022/03/21 02:00:37;;;;;;;;;;;6.60;99.90;;;;;;5096066;28;19978;-60
2022/03/21 02:03:03;;;;;;;;;;;6.60;99.90;;;;;;5102391;28;19923;-61
2022/03/21 02:05:31;;;;;;;;;;;6.60;99.90;;;;;;5113973;28;20387;-60
2022/03/21 02:07:57;;;;;;;;;;;6.60;99.90;;;;;;5095259;28;19935;-60
2022/03/21 02:10:23;;;;;;;;;;;6.50;99.90;;;;;;5093814;28;19924;-60
2022/03/21 02:12:48;;;;;;;;;;;6.50;99.90;;;;;;5093562;28;20007;-60
2022/03/21 02:15:14;;;;;;;;;;;6.60;99.90;;;;;;5094513;28;19982;-60
2022/03/21 02:17:42;;;;;;;;;;;6.50;99.90;;;;;;5095479;28;19924;-60
2022/03/21 02:20:08;;;;;;;;;;;6.60;99.90;;;;;;5094893;28;19934;-60
2022/03/21 02:22:51;;;;;;;;;;;6.50;99.90;;;;;;5095648;28;19924;-61
2022/03/21 02:25:16;;;;;;;;;;;6.50;99.90;;;;;;5094992;28;20275;-60
2022/03/21 02:27:43;;;;;;;;;;;6.50;99.90;;;;;;5094760;28;19930;-60
2022/03/21 02:30:09;;;;;;;;;;;6.50;99.90;;;;;;5095388;28;19923;-60
2022/03/21 02:32:35;;;;;;;;;;;6.50;99.90;;;;;;5092552;28;20305;-61
2022/03/21 02:35:02;;;;;;;;;;;6.50;99.90;;;;;;5095468;28;19969;-60
2022/03/21 02:37:27;;;;;;;;;;;6.40;99.90;;;;;;5095373;28;19995;-60
2022/03/21 02:39:54;;;;;;;;;;;6.50;99.90;;;;;;5093094;28;19958;-60
2022/03/21 02:42:20;;;;;;;;;;;6.50;99.90;;;;;;5086839;28;19973;-60
2022/03/21 02:44:45;;;;;;;;;;;6.50;99.90;;;;;;5095253;28;19924;-60
2022/03/21 02:47:11;;;;;;;;;;;6.50;99.90;;;;;;5093783;28;19924;-60
2022/03/21 02:49:37;;;;;;;;;;;6.50;99.90;;;;;;5093449;28;19935;-60
2022/03/21 02:52:04;;;;;;;;;;;6.40;99.90;;;;;;5094474;28;19931;-60
2022/03/21 02:54:30;;;;;;;;;;;6.40;99.90;;;;;;5093610;28;20393;-60
2022/03/21 02:56:56;;;;;;;;;;;6.40;99.90;;;;;;5094815;28;19924;-60
2022/03/21 02:59:22;;;;;;;;;;;6.40;99.90;;;;;;5094394;28;19924;-61
2022/03/21 03:01:47;;;;;;;;;;;6.30;99.90;;;;;;5093522;28;19935;-60
2022/03/21 03:04:13;;;;;;;;;;;6.30;99.90;;;;;;5112500;28;19970;-60
2022/03/21 03:06:39;;;;;;;;;;;6.30;99.90;;;;;;5114990;28;20023;-60
2022/03/21 03:09:06;;;;;;;;;;;6.20;99.90;;;;;;5101023;27;20389;-60
2022/03/21 03:11:31;;;;;;;;;;;6.20;99.90;;;;;;5094689;28;19966;-60
2022/03/21 03:13:57;;;;;;;;;;;6.20;99.90;;;;;;5094528;28;20329;-60
2022/03/21 03:16:22;;;;;;;;;;;6.10;99.90;;;;;;5092812;28;20310;-61
2022/03/21 03:18:48;;;;;;;;;;;6.10;99.90;;;;;;5093053;28;20000;-60
2022/03/21 03:21:19;;;;;;;;;;;6.00;99.90;;;;;;5093368;28;20343;-60
2022/03/21 03:23:46;;;;;;;;;;;6.00;99.90;;;;;;5093256;28;19924;-60
2022/03/21 03:26:12;;;;;;;;;;;5.90;99.90;;;;;;5092639;28;19935;-60
2022/03/21 03:28:38;;;;;;;;;;;5.90;99.90;;;;;;5093893;28;19924;-60
2022/03/21 03:31:04;;;;;;;;;;;5.80;99.90;;;;;;5093238;28;19951;-60
2022/03/21 03:33:30;;;;;;;;;;;5.70;99.90;;;;;;5082240;28;20371;-60
2022/03/21 03:35:56;;;;;;;;;;;5.60;99.90;;;;;;5087767;28;19924;-60
2022/03/21 03:38:21;;;;;;;;;;;5.60;99.90;;;;;;5092767;28;20282;-60
2022/03/21 03:40:47;;;;;;;;;;;5.60;99.90;;;;;;5090251;28;19924;-60
2022/03/21 03:43:15;;;;;;;;;;;5.60;99.90;;;;;;5090070;28;20458;-60
2022/03/21 03:45:42;;;;;;;;;;;5.50;99.90;;;;;;5093802;28;19924;-60
2022/03/21 03:48:08;;;;;;;;;;;5.50;99.90;;;;;;5092767;28;19924;-60
2022/03/21 03:50:34;;;;;;;;;;;5.50;99.90;;;;;;5093195;28;19931;-60
2022/03/21 03:52:59;;;;;;;;;;;5.40;99.90;;;;;;5093268;28;19928;-60
2022/03/21 03:55:26;;;;;;;;;;;5.30;99.90;;;;;;5093925;28;19976;-60
2022/03/21 03:57:52;;;;;;;;;;;5.30;99.90;;;;;;5093047;28;19924;-60
2022/03/21 04:00:18;;;;;;;;;;;5.20;99.90;;;;;;5093614;28;19924;-60
2022/03/21 04:05:29;;;;;;;;;;;5.10;99.90;;;;;;5113240;28;19927;-60
2022/03/21 04:07:55;;;;;;;;;;;5.00;99.90;;;;;;5112184;28;20393;-60
2022/03/21 04:10:21;;;;;;;;;;;5.00;99.90;;;;;;5106536;28;19923;-61
2022/03/21 04:12:48;;;;;;;;;;;5.00;99.90;;;;;;5091716;28;19928;-60
2022/03/21 04:15:14;;;;;;;;;;;4.90;99.90;;;;;;5092649;28;20015;-60
2022/03/21 04:17:40;;;;;;;;;;;4.90;99.90;;;;;;5093575;28;20007;-60
2022/03/21 04:20:06;;;;;;;;;;;4.90;99.90;;;;;;5092564;28;19920;-61
2022/03/21 04:22:32;;;;;;;;;;;4.90;99.90;;;;;;5093002;28;20010;-60
2022/03/21 04:24:58;;;;;;;;;;;4.90;99.90;;;;;;5093559;28;19931;-60
2022/03/21 04:27:24;;;;;;;;;;;4.70;99.90;;;;;;5092515;28;20003;-60
2022/03/21 04:29:49;;;;;;;;;;;4.70;99.90;;;;;;5091760;28;19932;-60
2022/03/21 04:32:15;;;;;;;;;;;4.70;99.90;;;;;;5091058;28;20370;-60
2022/03/21 04:34:41;;;;;;;;;;;4.60;99.90;;;;;;5093344;28;19924;-60
2022/03/21 04:37:07;;;;;;;;;;;4.60;99.90;;;;;;5092558;28;19928;-60
2022/03/21 04:39:33;;;;;;;;;;;4.50;99.90;;;;;;5092247;28;20301;-60
2022/03/21 04:41:59;;;;;;;;;;;4.40;99.90;;;;;;5081923;28;20023;-60
2022/03/21 04:44:26;;;;;;;;;;;4.50;99.90;;;;;;5072794;28;19924;-60
2022/03/21 04:46:51;;;;;;;;;;;4.40;99.90;;;;;;5087991;28;19947;-60
2022/03/21 04:49:17;;;;;;;;;;;4.20;99.90;;;;;;5092946;28;19924;-60
2022/03/21 04:51:43;;;;;;;;;;;4.20;99.90;;;;;;5093043;28;19920;-60
2022/03/21 04:54:08;;;;;;;;;;;4.10;99.90;;;;;;5090628;28;19939;-60
2022/03/21 04:56:34;;;;;;;;;;;4.00;99.90;;;;;;5093397;28;19931;-60
2022/03/21 04:58:59;;;;;;;;;;;4.00;99.90;;;;;;5092786;28;19931;-60
2022/03/21 05:01:25;;;;;;;;;;;3.90;99.90;;;;;;5092457;28;19924;-60
2022/03/21 05:03:51;;;;;;;;;;;4.00;99.90;;;;;;5097084;28;20014;-60
2022/03/21 05:06:17;;;;;;;;;;;3.80;99.90;;;;;;5092704;28;19920;-60
2022/03/21 05:08:43;;;;;;;;;;;3.90;99.90;;;;;;5091821;28;19930;-60
2022/03/21 05:11:08;;;;;;;;;;;3.80;99.90;;;;;;5092975;28;19924;-60
2022/03/21 05:13:34;;;;;;;;;;;3.80;99.90;;;;;;5092917;28;20022;-60
2022/03/21 05:16:00;;;;;;;;;;;3.80;99.90;;;;;;5088508;28;19925;-60
2022/03/21 05:18:27;;;;;;;;;;;3.80;99.90;;;;;;5075176;28;19929;-60
2022/03/21 05:20:52;;;;;;;;;;;3.80;99.90;;;;;;5081110;28;19924;-60
2022/03/21 05:31:31;;;;;;;;;;;3.50;99.90;;;;;;5096484;28;19924;-60
2022/03/21 05:36:41;;;;;;;;;;;3.50;99.90;;;;;;5074982;28;20387;-60
2022/03/21 05:39:06;;;;;;;;;;;3.50;99.90;;;;;;5084094;28;19967;-60
2022/03/21 05:41:32;;;;;;;;;;;3.40;99.90;;;;;;5084875;28;19939;-60
2022/03/21 05:43:58;;;;;;;;;;;3.40;99.90;;;;;;5074790;28;19947;-60
2022/03/21 05:46:23;;;;;;;;;;;3.30;99.90;;;;;;5075952;28;19928;-60
2022/03/21 05:48:59;;;;;;;;;;;3.20;99.90;;;;;;5090911;28;19928;-60
2022/03/21 05:51:28;;;;;;;;;;;3.10;99.90;;;;;;5095018;28;19924;-60
2022/03/21 05:53:54;;;;;;;;;;;3.30;99.90;;;;;;5096208;28;20014;-60
2022/03/21 05:56:21;;;;;;;;;;;3.00;99.90;;;;;;5095868;28;19931;-60
2022/03/21 05:58:46;;;;;;;;;;;3.00;99.90;;;;;;5094776;28;19924;-60
2022/03/21 06:01:12;;;;;;;;;;;2.80;99.90;;;;;;5094871;28;19924;-60
2022/03/21 06:03:39;;;;;;;;;;;2.80;99.90;;;;;;5107972;28;20403;-60
2022/03/21 06:06:04;;;;;;;;;;;2.80;99.90;;;;;;5101453;28;19931;-60
2022/03/21 06:08:30;;;;;;;;;;;2.80;99.90;;;;;;5095416;28;20270;-60
2022/03/21 06:11:03;;;;;;;;;;;2.90;99.90;;;;;;5094843;28;20032;-60
2022/03/21 06:13:30;;;;;;;;;;;3.00;99.90;;;;;;5095169;28;19924;-60
2022/03/21 06:15:56;;;;;;;;;;;3.00;99.90;;;;;;5095121;28;19924;-60
2022/03/21 06:18:22;;;;;;;;;;;3.10;99.90;;;;;;5094746;28;19924;-60
2022/03/21 06:20:48;;;;;;;;;;;3.00;99.90;;;;;;5095190;28;19994;-60
2022/03/21 06:23:13;;;;;;;;;;;3.10;99.90;;;;;;5095132;28;19924;-60
2022/03/21 06:25:39;;;;;;;;;;;3.00;99.90;;;;;;5093847;28;19928;-60
2022/03/21 06:28:04;;;;;;;;;;;3.00;99.90;;;;;;5093830;28;20398;-60
2022/03/21 06:30:30;;;;;;;;;;;3.00;99.90;;;;;;5094093;28;20381;-60
2022/03/21 06:32:56;;;;;;;;;;;3.10;99.90;;;;;;5094145;28;19931;-60
2022/03/21 06:35:21;;;;;;;;;;;3.20;99.90;;;;;;5095099;28;19924;-60
2022/03/21 06:37:47;;;;;;;;;;;3.20;99.90;;;;;;5095134;28;19931;-60
2022/03/21 06:40:13;;;;;;;;;;;3.40;99.90;;;;;;5093865;28;19989;-60
2022/03/21 06:42:38;;;;;;;;;;;3.50;99.90;;;;;;5084658;28;19942;-60
2022/03/21 06:45:08;;;;;;;;;;;3.60;99.90;;;;;;5090007;28;19927;-60
2022/03/21 06:47:34;;;;;;;;;;;3.80;99.90;;;;;;5092844;28;19924;-60
2022/03/21 06:49:59;;;;;;;;;;;3.90;99.90;;;;;;5094196;28;20010;-60
2022/03/21 06:52:25;;;;;;;;;;;4.00;99.90;;;;;;5094864;28;19956;-60
2022/03/21 06:54:50;;;;;;;;;;;4.20;99.90;;;;;;5092911;28;19924;-60
2022/03/21 06:57:16;;;;;;;;;;;4.40;99.90;;;;;;5094392;28;20386;-60
2022/03/21 06:59:43;;;;;;;;;;;4.60;99.90;;;;;;5094549;28;20267;-61
2022/03/21 07:02:08;;;;;;;;;;;4.70;99.90;;;;;;5094176;28;20395;-60
2022/03/21 07:04:34;;;;;;;;;;;4.90;99.90;;;;;;5084822;28;20020;-60
2022/03/21 07:07:00;;;;;;;;;;;5.00;99.90;;;;;;5077414;28;19924;-60
2022/03/21 07:09:25;;;;;;;;;;;5.20;99.90;;;;;;5094373;28;19924;-60
2022/03/21 07:11:52;;;;;;;;;;;5.40;99.90;;;;;;5094602;28;19924;-61
2022/03/21 07:14:18;;;;;;;;;;;5.60;99.90;;;;;;5093555;28;19924;-60
2022/03/21 07:16:44;;;;;;;;;;;5.80;99.90;;;;;;5092283;28;20185;-61
2022/03/21 07:19:09;;;;;;;;;;;5.90;99.90;;;;;;5094456;28;19928;-60
2022/03/21 07:21:35;;;;;;;;;;;6.10;99.90;;;;;;5093286;28;19924;-61
2022/03/21 07:24:01;;;;;;;;;;;6.30;99.90;;;;;;5094343;28;20011;-61
2022/03/21 07:26:27;;;;;;;;;;;6.40;99.90;;;;;;5094164;28;19946;-61
2022/03/21 07:28:52;;;;;;;;;;;6.70;99.90;;;;;;5093139;28;19969;-61
2022/03/21 07:31:18;;;;;;;;;;;6.90;99.90;;;;;;5093179;28;19924;-61
2022/03/21 07:33:44;;;;;;;;;;;7.10;99.90;;;;;;5087238;28;19924;-61
2022/03/21 07:36:09;;;;;;;;;;;7.30;99.90;;;;;;5084151;28;20279;-61
2022/03/21 07:38:36;;;;;;;;;;;7.50;99.90;;;;;;5083325;28;19993;-61
2022/03/21 07:41:02;;;;;;;;;;;7.60;99.90;;;;;;5078674;28;19979;-61
2022/03/21 07:43:28;;;;;;;;;;;7.80;99.90;;;;;;5092636;28;19967;-61
2022/03/21 07:48:37;;;;;;;;;;;8.10;99.90;;;;;;5093967;28;20328;-61
2022/03/21 07:51:04;;;;;;;;;;;8.30;99.90;;;;;;5092361;28;19928;-61
2022/03/21 07:53:31;;;;;;;;;;;8.40;99.90;;;;;;5093952;28;19928;-61
2022/03/21 07:55:59;;;;;;;;;;;8.60;99.90;;;;;;5093868;28;19931;-61
2022/03/21 07:58:26;;;;;;;;;;;8.70;99.90;;;;;;5092764;28;19977;-61
2022/03/21 08:00:52;;;;;;;;;;;8.90;99.90;;;;;;5093580;28;19927;-61
2022/03/21 08:03:18;;;;;;;;;;;9.00;99.90;;;;;;5085626;28;19925;-61
2022/03/21 08:05:44;;;;;;;;;;;9.10;99.90;;;;;;5081585;28;19921;-61
2022/03/21 08:08:09;;;;;;;;;;;9.20;99.90;;;;;;5077853;28;19936;-61
2022/03/21 08:10:35;;;;;;;;;;;9.30;99.90;;;;;;5090272;28;19924;-61
2022/03/21 08:13:01;;;;;;;;;;;9.40;99.90;;;;;;5093356;28;19924;-61
2022/03/21 08:15:27;;;;;;;;;;;9.50;99.90;;;;;;5092875;28;19955;-61
2022/03/21 08:17:57;;;;;;;;;;;9.40;99.90;;;;;;5091304;28;20385;-61
2022/03/21 08:20:23;;;;;;;;;;;9.30;99.90;;;;;;5091581;28;20381;-61
2022/03/21 08:22:50;;;;;;;;;;;9.20;99.90;;;;;;5092341;28;19995;-61
2022/03/21 08:25:16;;;;;;;;;;;9.20;99.90;;;;;;5092737;28;19926;-61
2022/03/21 08:27:43;;;;;;;;;;;9.20;99.90;;;;;;5090519;28;19981;-61
2022/03/21 08:30:10;;;;;;;;;;;9.40;99.90;;;;;;5083935;28;20275;-61
2022/03/21 08:32:36;;;;;;;;;;;9.40;99.90;;;;;;5092278;28;19924;-61
2022/03/21 08:35:02;;;;;;;;;;;9.60;99.90;;;;;;5092258;28;19924;-61
2022/03/21 08:37:27;;;;;;;;;;;9.60;99.90;;;;;;5072689;28;19924;-61
2022/03/21 08:39:53;;;;;;;;;;;9.60;99.90;;;;;;5079580;28;19946;-61
2022/03/21 08:42:19;;;;;;;;;;;9.80;99.90;;;;;;5082634;28;19928;-61
2022/03/21 08:44:45;;;;;;;;;;;9.90;99.90;;;;;;5079839;28;19924;-61
2022/03/21 08:47:10;;;;;;;;;;;10.10;99.90;;;;;;5084393;28;20275;-61
2022/03/21 08:49:38;;;;;;;;;;;9.90;99.90;;;;;;5087745;28;19935;-61
2022/03/21 08:52:06;;;;;;;;;;;10.00;99.90;;;;;;5097224;28;20483;-61
2022/03/21 08:54:31;;;;;;;;;;;10.20;99.90;;;;;;5095674;28;19975;-61
2022/03/21 08:56:57;;;;;;;;;;;10.30;99.90;;;;;;5096271;28;19966;-61
2022/03/21 08:59:24;;;;;;;;;;;10.40;99.90;;;;;;5096563;28;19994;-61
2022/03/21 09:01:50;;;;;;;;;;;10.60;99.90;;;;;;5096317;28;19928;-61
2022/03/21 09:04:16;;;;;;;;;;;10.80;99.90;;;;;;5114587;28;20054;-61
2022/03/21 09:06:42;;;;;;;;;;;11.00;99.90;;;;;;5106084;28;20451;-61
2022/03/21 09:09:08;;;;;;;;;;;11.50;99.90;;;;;;5096557;28;19924;-61
2022/03/21 09:11:33;;;;;;;;;;;11.20;99.90;;;;;;5095676;28;20386;-61
2022/03/21 09:13:59;;;;;;;;;;;11.10;99.90;;;;;;5095943;28;19935;-61
2022/03/21 09:16:25;;;;;;;;;;;10.90;99.90;;;;;;5090409;28;20367;-61
2022/03/21 09:18:51;;;;;;;;;;;10.80;99.90;;;;;;5093218;28;19924;-61
2022/03/21 09:21:16;;;;;;;;;;;10.60;99.90;;;;;;5093262;28;19924;-61
2022/03/21 09:23:42;;;;;;;;;;;10.80;99.90;;;;;;5086533;28;19931;-61
2022/03/21 09:26:11;;;;;;;;;;;10.70;99.90;;;;;;5085301;28;19928;-61
2022/03/21 09:28:38;;;;;;;;;;;10.80;99.90;;;;;;5086823;28;19929;-61
2022/03/21 09:31:06;;;;;;;;;;;10.90;99.90;;;;;;5087381;28;19932;-61
2022/03/21 09:33:32;;;;;;;;;;;11.00;99.90;;;;;;5092564;28;19975;-61
2022/03/21 09:35:58;;;;;;;;;;;10.90;99.90;;;;;;5109934;28;19931;-61
2022/03/21 09:38:23;;;;;;;;;;;11.00;99.90;;;;;;5092210;28;20019;-61
2022/03/21 09:40:49;;;;;;;;;;;11.00;99.90;;;;;;5076698;28;19935;-61
2022/03/21 09:43:15;;;;;;;;;;;11.00;99.90;;;;;;5084990;28;19925;-61
2022/03/21 09:45:41;;;;;;;;;;;11.00;99.90;;;;;;5086235;28;19927;-61
2022/03/21 09:48:08;;;;;;;;;;;11.20;99.90;;;;;;5092937;28;20003;-61
2022/03/21 09:50:35;;;;;;;;;;;11.30;99.90;;;;;;5094069;28;19932;-61
2022/03/21 09:53:02;;;;;;;;;;;11.40;99.90;;;;;;5096131;28;19986;-61
2022/03/21 09:55:27;;;;;;;;;;;11.50;99.90;;;;;;5087705;28;19935;-61
2022/03/21 09:57:53;;;;;;;;;;;11.50;99.90;;;;;;5084169;28;19925;-61
2022/03/21 10:00:19;;;;;;;;;;;11.50;99.90;;;;;;5085492;28;20119;-61
2022/03/21 10:02:45;;;;;;;;;;;11.60;99.90;;;;;;5084221;28;20239;-61
2022/03/21 10:05:30;;;;;;;;;;;11.60;99.90;;;;;;5086114;28;19924;-62
2022/03/21 10:08:21;;;;;;;;;;;11.60;99.90;;;;;;5073777;28;19929;-61
2022/03/21 10:10:51;;;;;;;;;;;11.70;99.90;;;;;;5079608;28;19924;-61
2022/03/21 10:13:17;;;;;;;;;;;11.80;99.90;;;;;;5093108;28;20366;-61
2022/03/21 10:15:43;;;;;;;;;;;12.00;99.90;;;;;;5094404;28;20423;-62
2022/03/21 10:18:09;;;;;;;;;;;12.20;99.90;;;;;;5094477;28;20023;-62
2022/03/21 10:20:35;;;;;;;;;;;12.40;99.90;;;;;;5095833;28;20318;-62
2022/03/21 10:23:15;;;;;;;;;;;12.60;99.90;;;;;;5095113;28;19973;-62
2022/03/21 10:25:40;;;;;;;;;;;12.70;99.90;;;;;;5092319;28;19930;-62
2022/03/21 10:28:06;;;;;;;;;;;;;;;;;;5095358;28;19920;-62
2022/03/21 10:30:32;;;;;;;;;;;13.00;99.90;;;;;;5095241;28;19970;-61
2022/03/21 10:32:58;;;;;;;;;;;13.30;99.90;;;;;;5086772;28;19920;-61
2022/03/21 10:35:26;;;;;;;;;;;13.50;99.90;;;;;;5075259;28;20395;-62
2022/03/21 10:37:52;;;;;;;;;;;14.00;99.90;;;;;;5074574;28;20019;-62
2022/03/21 10:40:22;;;;;;;;;;;14.10;99.90;;;;;;5086021;28;19939;-62
2022/03/21 10:42:49;;;;;;;;;;;14.20;99.90;;;;;;5089007;28;19930;-62
2022/03/21 10:45:15;;;;;;;;;;;14.40;99.90;;;;;;5094397;28;19935;-61
2022/03/21 10:47:47;;;;;;;;;;;14.80;99.90;;;;;;5094706;28;19924;-62
2022/03/21 10:50:13;;;;;;;;;;;14.80;99.80;;;;;;5094737;28;20285;-61
2022/03/21 10:52:39;;;;;;;;;;;14.70;97.10;;;;;;5094163;28;19924;-61
2022/03/21 10:55:05;;;;;;;;;;;14.60;99.90;;;;;;5094667;28;19943;-62
2022/03/21 10:57:32;;;;;;;;;;;14.50;99.30;;;;;;5094524;28;19931;-62
2022/03/21 11:00:16;;;;;;;;;;;14.50;98.70;;;;;;5094185;28;19977;-62
2022/03/21 11:02:51;;;;;;;;;;;14.70;98.30;;;;;;5099377;28;20348;-62
2022/03/21 11:05:17;;;;;;;;;;;14.80;98.10;;;;;;5115094;28;20370;-62
2022/03/21 11:07:45;;;;;;;;;;;14.70;97.80;;;;;;5095006;28;19947;-62
2022/03/21 11:10:11;;;;;;;;;;;14.30;98.60;;;;;;5093854;28;19958;-62
2022/03/21 11:12:39;;;;;;;;;;;14.60;99.90;;;;;;5092984;28;19928;-62
2022/03/21 11:15:05;;;;;;;;;;;15.00;99.90;;;;;;5093257;28;19931;-62
2022/03/21 11:17:33;;;;;;;;;;;15.40;98.00;;;;;;5093423;28;21291;-62
2022/03/21 11:20:00;;;;;;;;;;;15.20;98.60;;;;;;5093349;28;19931;-62
2022/03/21 11:22:26;;;;;;;;;;;15.20;97.60;;;;;;5093788;28;19924;-62
2022/03/21 11:24:52;;;;;;;;;;;15.40;98.40;;;;;;5093896;28;20011;-62
2022/03/21 11:27:18;;;;;;;;;;;15.40;97.40;;;;;;5093739;28;19970;-62
2022/03/21 11:29:57;;;;;;;;;;;16.00;95.80;;;;;;5094108;28;19971;-62
2022/03/21 11:32:29;;;;;;;;;;;16.60;83.90;;;;;;5093375;28;19936;-62
2022/03/21 11:34:55;;;;;;;;;;;;;;;;;;5093512;28;19977;-62
2022/03/21 11:37:21;;;;;;;;;;;;;;;;;;5092734;28;20360;-62
2022/03/21 11:39:47;;;;;;;;;;;17.50;85.80;;;;;;5093779;28;19924;-62
2022/03/21 11:42:22;;;;;;;;;;;17.20;82.90;;;;;;5092673;28;19924;-62
2022/03/21 11:45:07;;;;;;;;;;;17.00;84.00;;;;;;5094202;28;20023;-62
2022/03/21 11:47:34;;;;;;;;;;;16.40;80.30;;;;;;5092506;28;19931;-62
2022/03/21 11:50:00;;;;;;;;;;;15.80;86.10;;;;;;5091439;28;19924;-62
2022/03/21 11:52:26;;;;;;;;;;;15.70;85.40;;;;;;5092813;28;19950;-62
2022/03/21 11:54:53;;;;;;;;;;;15.70;91.00;;;;;;5093233;28;19924;-62
2022/03/21 11:57:26;;;;;;;;;;;16.00;95.10;;;;;;5093220;28;20073;-62
2022/03/21 11:59:52;;;;;;;;;;;16.50;94.90;;;;;;5093705;28;19986;-62
2022/03/21 12:02:19;;;;;;;;;;;16.90;93.70;;;;;;5092809;28;19924;-62
2022/03/21 12:04:56;;;;;;;;;;;17.10;78.80;;;;;;5114167;28;19948;-62
2022/03/21 12:07:22;;;;;;;;;;;17.30;83.00;;;;;;5112950;28;19930;-62
2022/03/21 12:09:49;;;;;;;;;;;17.60;85.20;;;;;;5092416;28;19928;-62
2022/03/21 12:12:15;;;;;;;;;;;17.90;90.00;;;;;;5091937;28;20007;-62
2022/03/21 12:14:44;;;;;;;;;;;18.10;90.00;;;;;;5080470;28;19931;-62
2022/03/21 12:17:10;;;;;;;;;;;18.10;83.50;;;;;;5080841;28;20289;-62
2022/03/21 12:19:46;;;;;;;;;;;17.70;78.00;;;;;;5081397;28;19931;-62
2022/03/21 12:22:33;;;;;;;;;;;17.60;82.60;;;;;;5086578;28;19951;-62
2022/03/21 12:24:59;;;;;;;;;;;17.60;83.80;;;;;;5081323;28;19924;-61
2022/03/21 12:27:31;;;;;;;;;;;17.90;83.20;;;;;;5081269;28;19924;-62
2022/03/21 12:30:16;;;;;;;;;;;17.70;84.90;;;;;;5081351;28;19924;-62
2022/03/21 12:32:48;;;;;;;;;;;17.60;90.90;;;;;;5077501;28;19924;-62
2022/03/21 12:35:31;;;;;;;;;;;17.10;80.10;;;;;;5089836;28;20320;-62
2022/03/21 12:38:14;;;;;;;;;;;17.00;88.00;;;;;;5085346;28;20446;-62
2022/03/21 12:40:46;;;;;;;;;;;17.20;93.90;;;;;;5079245;28;19928;-62
2022/03/21 12:43:12;;;;;;;;;;;16.90;84.00;;;;;;5081757;28;20382;-61
2022/03/21 12:45:38;;;;;;;;;;;17.60;92.20;;;;;;5076145;28;19924;-62
2022/03/21 12:48:05;;;;;;;;;;;18.00;76.60;;;;;;5073129;28;19924;-62
2022/03/21 12:50:33;;;;;;;;;;;18.40;87.50;;;;;;5076180;28;20003;-62
2022/03/21 12:53:01;;;;;;;;;;;19.20;85.90;;;;;;5091802;28;19924;-62
2022/03/21 12:55:27;;;;;;;;;;;19.80;80.10;;;;;;5092970;28;19924;-62
2022/03/21 12:57:54;;;;;;;;;;;19.80;76.70;;;;;;5093232;28;20015;-62
2022/03/21 13:00:20;;;;;;;;;;;20.50;73.00;;;;;;5092004;28;20378;-62
2022/03/21 13:02:47;;;;;;;;;;;20.50;61.70;;;;;;5097126;28;20011;-62
2022/03/21 13:10:42;;;;;;;;;;;22.20;67.80;;;;;;5102241;28;19924;-62
2022/03/21 13:13:09;;;;;;;;;;;;;;;;;;5092145;28;19920;-62
2022/03/21 13:15:35;;;;;;;;;;;22.70;59.50;;;;;;5088589;28;19947;-62
2022/03/21 13:18:03;;;;;;;;;;;23.00;57.40;;;;;;5072643;28;19925;-62
2022/03/21 13:20:33;;;;;;;;;;;23.10;57.80;;;;;;5090554;28;19943;-62
2022/03/21 13:22:59;;;;;;;;;;;22.90;58.70;;;;;;5083371;28;20011;-62
2022/03/21 13:25:27;;;;;;;;;;;22.50;55.30;;;;;;5091660;28;19977;-62
2022/03/21 13:28:08;;;;;;;;;;;22.60;60.80;;;;;;5086168;28;20298;-62
2022/03/21 13:30:34;;;;;;;;;;;22.80;63.40;;;;;;5079884;28;20011;-62
2022/03/21 13:33:01;;;;;;;;;;;23.10;61.60;;;;;;5084926;28;19924;-62
2022/03/21 13:35:27;;;;;;;;;;;23.40;59.50;;;;;;5087123;28;19924;-62
2022/03/21 13:38:02;;;;;;;;;;;23.90;61.00;;;;;;5096045;28;19983;-62
2022/03/21 13:40:29;;;;;;;;;;;;;;;;;;5095297;28;19931;-62
2022/03/21 13:42:54;;;;;;;;;;;24.50;56.60;;;;;;5075266;28;19930;-62
2022/03/21 13:45:21;;;;;;;;;;;24.60;58.20;;;;;;5077836;28;20018;-62
2022/03/21 13:47:48;;;;;;;;;;;24.30;56.80;;;;;;5079708;28;19928;-63
2022/03/21 13:50:14;;;;;;;;;;;23.40;57.50;;;;;;5096048;28;19924;-63
2022/03/21 13:52:42;;;;;;;;;;;22.60;59.00;;;;;;5095206;28;19977;-62
2022/03/21 13:55:09;;;;;;;;;;;22.10;61.80;;;;;;5094746;28;19924;-63
2022/03/21 13:57:42;;;;;;;;;;;22.10;62.10;;;;;;5094806;28;20059;-63
2022/03/21 14:00:10;;;;;;;;;;;22.40;62.00;;;;;;5095099;28;19924;-62
2022/03/21 14:02:42;;;;;;;;;;;22.60;61.70;;;;;;5097848;28;19923;-62
2022/03/21 14:05:18;;;;;;;;;;;22.50;62.30;;;;;;5081186;28;19927;-63
2022/03/21 14:07:44;;;;;;;;;;;22.20;61.90;;;;;;5075139;28;20264;-63
2022/03/21 14:10:12;;;;;;;;;;;21.70;64.40;;;;;;5086241;28;19932;-63
2022/03/21 14:12:39;;;;;;;;;;;21.40;64.60;;;;;;5093538;28;19988;-63
2022/03/21 14:15:05;;;;;;;;;;;21.20;66.70;;;;;;5095146;28;20069;-63
2022/03/21 14:17:31;;;;;;;;;;;21.30;68.60;;;;;;5093827;28;20007;-63
2022/03/21 14:19:56;;;;;;;;;;;21.20;66.90;;;;;;5095203;28;19924;-63
2022/03/21 14:22:22;;;;;;;;;;;21.10;67.50;;;;;;5094396;28;19924;-62
2022/03/21 14:24:48;;;;;;;;;;;20.90;66.40;;;;;;5094424;28;19931;-63
2022/03/21 14:27:13;;;;;;;;;;;21.10;68.10;;;;;;5095291;28;20581;-63
2022/03/21 14:29:39;;;;;;;;;;;21.20;59.90;;;;;;5094143;28;19928;-63
2022/03/21 14:32:07;;;;;;;;;;;21.50;65.60;;;;;;5094333;28;19924;-63
2022/03/21 14:34:33;;;;;;;;;;;21.90;64.60;;;;;;5075560;28;20338;-63
2022/03/21 14:36:59;;;;;;;;;;;22.10;61.80;;;;;;5092651;28;19928;-63
2022/03/21 14:39:25;;;;;;;;;;;22.30;63.30;;;;;;5094196;28;19924;-63
2022/03/21 14:41:51;;;;;;;;;;;22.30;63.10;;;;;;5094998;28;19924;-63
2022/03/21 14:44:18;;;;;;;;;;;22.10;62.10;;;;;;5093492;28;20379;-63
2022/03/21 14:46:44;;;;;;;;;;;22.00;63.90;;;;;;5094503;28;19925;-63